Terminal Aerodrome Forecast
Issued by NWS Aberdeen, SD

Home | Current Version | Previous Version | Text Only | Print | Product List | Glossary On
Versions: 1 2 3 4 5 6 7 8 9 10 11 12 13 14 15 16 17 18 19 20 21 22 23 24 25 26 27 28 29 30 31 32 33 34 35 36 37 38 39 40 41 42 43 44 45 46 47 48 49 50
158
FTAK31 PAFA 270540
TAFABR
TAF
PABR 270540Z 2706/2806 07008KT P6SM VCSH FEW012 SCT060 BKN100
     FM271400 33009KT P6SM BKN020 OVC050
     FM271800 32009KT 3SM -SHRA BR BKN008 OVC015=

USA.gov is the U.S. government's official web portal to all federal, state and local government web resources and services.